Terminal Aerodrome Forecast
Issued by NWS

Home | Current Version | Previous Version | Text Only | Print | Product List | Glossary On
Versions: 1 2 3 4 5 6 7 8 9 10 11 12 13 14 15 16 17 18 19 20 21 22 23 24
000
FTUS43 KSGF 230520
TAFBBG
TAF
KBBG 230520Z 2306/2406 VRB04KT P6SM BKN150
     FM231100 VRB04KT P6SM VCSH BKN045
      TEMPO 2314/2317 BKN030
     FM231700 31008G17KT P6SM VCSH BKN040 PROB30 2317/2323 5SM -TSRA
      BR BKN035CB
     FM240000 31005KT P6SM OVC080=

USA.gov is the U.S. government's official web portal to all federal, state and local government web resources and services.